Time;durP1;ratioP1;P1;durP2;ratioP2;P2;SDS_P1;SDS_P2;PMS_P1;PMS_P2;Temp;Humidity;BMP_temperature;BMP_pressure;BME280_temperature;BME280_humidity;BME280_pressure;Samples;Min_cycle;Max_cycle;Signal;HPM_P1;HPM_P2
2022/04/26 03:38:07;;;;;;;10.40;7.10;;;11.60;99.90;;;;;;5036082;28;20468;-68
2022/04/26 03:40:38;;;;;;;9.57;7.20;;;11.40;99.90;;;;;;5055153;28;20447;-68
2022/04/26 03:43:09;;;;;;;9.50;7.77;;;11.40;99.90;;;;;;5083925;28;20483;-68
2022/04/26 03:45:39;;;;;;;9.77;7.73;;;11.30;99.90;;;;;;5081150;28;20543;-67
2022/04/26 03:48:10;;;;;;;11.83;7.80;;;11.30;99.90;;;;;;5071157;28;20513;-67
2022/04/26 03:50:41;;;;;;;9.73;7.87;;;11.30;99.90;;;;;;5081697;28;20533;-68
2022/04/26 03:53:14;;;;;;;9.03;8.13;;;11.30;99.90;;;;;;5081918;28;20443;-68
2022/04/26 03:55:45;;;;;;;7.80;6.80;;;11.30;99.90;;;;;;5081590;28;20462;-68
2022/04/26 03:58:25;;;;;;;8.50;7.60;;;11.20;99.90;;;;;;5080947;28;20455;-68
2022/04/26 04:00:56;;;;;;;8.03;7.10;;;11.10;99.90;;;;;;5079199;28;20463;-68
2022/04/26 04:03:27;;;;;;;9.13;7.70;;;11.00;99.90;;;;;;5082859;28;20479;-68
2022/04/26 04:05:58;;;;;;;10.13;8.50;;;10.90;99.90;;;;;;5081952;28;20572;-68
2022/04/26 04:08:30;;;;;;;9.43;7.60;;;10.90;99.90;;;;;;5078509;28;20562;-68
2022/04/26 04:11:01;;;;;;;9.23;7.90;;;10.80;99.90;;;;;;5081547;28;20532;-68
2022/04/26 04:13:32;;;;;;;8.50;7.50;;;10.80;99.90;;;;;;5082789;28;20793;-68
2022/04/26 04:16:03;;;;;;;9.10;8.20;;;10.70;99.90;;;;;;5082507;28;20454;-69
2022/04/26 04:21:21;;;;;;;10.17;8.20;;;10.50;99.90;;;;;;5082995;28;20460;-70
2022/04/26 04:23:54;;;;;;;13.33;8.27;;;10.50;99.90;;;;;;5082079;28;20977;-71
2022/04/26 04:26:25;;;;;;;11.07;8.37;;;10.50;99.90;;;;;;5082250;28;20490;-69
2022/04/26 04:28:55;;;;;;;10.90;8.30;;;10.50;99.90;;;;;;5081063;28;20464;-68
2022/04/26 04:31:26;;;;;;;11.17;8.93;;;10.60;99.90;;;;;;5083483;28;20444;-69
2022/04/26 04:33:57;;;;;;;11.03;9.27;;;10.50;99.90;;;;;;5085778;28;20537;-69
2022/04/26 04:36:28;;;;;;;10.80;8.10;;;10.50;99.90;;;;;;5083990;28;20485;-69
2022/04/26 04:39:01;;;;;;;14.40;9.10;;;10.50;99.90;;;;;;5081845;28;20459;-69
2022/04/26 04:41:36;;;;;;;10.97;9.20;;;10.50;99.90;;;;;;5081576;28;20455;-70
2022/04/26 04:44:08;;;;;;;11.27;9.10;;;10.50;99.90;;;;;;5082033;28;20490;-69
2022/04/26 04:46:39;;;;;;;12.47;8.50;;;10.50;99.90;;;;;;5081539;28;20780;-68
2022/04/26 04:49:10;;;;;;;12.60;9.50;;;10.50;99.90;;;;;;5080173;28;20513;-69
2022/04/26 04:51:41;;;;;;;8.97;7.50;;;10.50;99.90;;;;;;5081535;28;20501;-69
2022/04/26 04:54:13;;;;;;;9.93;7.60;;;10.60;99.90;;;;;;5080653;28;20477;-69
2022/04/26 04:56:44;;;;;;;10.00;7.97;;;10.60;99.90;;;;;;5080989;28;20463;-68
2022/04/26 04:59:22;;;;;;;9.30;7.70;;;10.60;99.90;;;;;;5080033;28;20463;-69
2022/04/26 05:01:54;;;;;;;10.70;8.33;;;10.50;99.90;;;;;;5081715;28;20451;-68
2022/04/26 05:04:25;;;;;;;10.20;7.77;;;10.60;99.90;;;;;;5079549;28;20585;-69
2022/04/26 05:06:55;;;;;;;11.73;8.70;;;10.60;99.90;;;;;;5081876;28;20456;-68
2022/04/26 05:09:28;;;;;;;8.00;7.17;;;10.70;99.90;;;;;;5091454;28;20531;-69
2022/04/26 05:11:59;;;;;;;9.73;7.87;;;10.70;99.90;;;;;;5082292;28;20448;-68
2022/04/26 05:14:30;;;;;;;11.80;8.20;;;10.70;99.90;;;;;;5082096;28;20504;-68
2022/04/26 05:17:02;;;;;;;9.80;7.40;;;10.80;99.90;;;;;;5079883;28;21009;-69
2022/04/26 05:19:32;;;;;;;9.50;8.40;;;10.80;99.90;;;;;;5080694;28;20469;-68
2022/04/26 05:22:08;;;;;;;10.97;8.47;;;10.90;99.90;;;;;;5079697;28;20455;-68
2022/04/26 05:24:57;;;;;;;8.40;7.40;;;10.90;99.90;;;;;;5079041;28;20486;-68
2022/04/26 05:27:30;;;;;;;11.10;7.37;;;10.90;99.90;;;;;;5079520;28;20471;-69
2022/04/26 05:30:00;;;;;;;11.70;7.57;;;10.90;99.90;;;;;;5079557;28;20467;-68
2022/04/26 05:32:32;;;;;;;7.03;6.20;;;10.80;99.90;;;;;;5081831;28;20538;-68
2022/04/26 05:35:04;;;;;;;7.70;6.40;;;10.80;99.90;;;;;;5079949;28;20451;-68
2022/04/26 05:37:35;;;;;;;8.60;7.20;;;10.90;99.90;;;;;;5077480;28;20463;-68
2022/04/26 05:40:08;;;;;;;6.70;6.00;;;10.90;99.90;;;;;;5079567;28;20594;-68
2022/04/26 05:42:40;;;;;;;6.53;5.27;;;10.80;99.90;;;;;;5080377;28;20524;-68
2022/04/26 05:45:11;;;;;;;5.23;4.73;;;10.90;99.90;;;;;;5079248;28;20563;-68
2022/04/26 05:47:45;;;;;;;7.10;5.77;;;10.90;99.90;;;;;;5079276;28;20463;-68
2022/04/26 05:50:16;;;;;;;6.07;4.73;;;10.90;99.90;;;;;;5073603;28;20454;-68
2022/04/26 05:52:47;;;;;;;5.90;5.30;;;10.90;99.90;;;;;;5079512;28;20463;-68
2022/04/26 05:55:19;;;;;;;8.23;4.90;;;10.90;99.90;;;;;;5079848;28;20489;-68
2022/04/26 05:57:50;;;;;;;5.00;4.40;;;10.90;99.90;;;;;;5077134;28;20464;-68
2022/04/26 06:00:21;;;;;;;5.17;4.63;;;10.90;99.90;;;;;;5078863;28;20468;-68
2022/04/26 06:02:52;;;;;;;6.30;5.20;;;10.90;99.90;;;;;;5081883;28;20469;-68
2022/04/26 06:05:23;;;;;;;4.67;4.13;;;10.90;99.90;;;;;;5080992;28;20491;-68
2022/04/26 06:07:54;;;;;;;6.50;4.20;;;10.90;99.90;;;;;;5080743;28;20463;-68
2022/04/26 06:10:28;;;;;;;5.63;4.50;;;10.90;99.90;;;;;;5079060;28;20482;-68
2022/04/26 06:12:59;;;;;;;5.17;4.67;;;10.90;99.90;;;;;;5079492;28;20469;-68
2022/04/26 06:15:29;;;;;;;6.80;4.80;;;10.90;99.90;;;;;;5080336;28;20456;-68
2022/04/26 06:18:00;;;;;;;4.90;3.93;;;10.90;99.90;;;;;;5082613;28;20459;-68
2022/04/26 06:20:32;;;;;;;4.20;3.63;;;10.90;99.90;;;;;;5084581;28;20547;-68
2022/04/26 06:23:03;;;;;;;6.40;4.40;;;10.90;99.90;;;;;;5081463;28;20466;-68
2022/04/26 06:25:37;;;;;;;6.17;4.93;;;10.80;99.90;;;;;;5084115;28;20491;-68
2022/04/26 06:28:09;;;;;;;4.10;3.53;;;10.80;99.90;;;;;;5082594;28;20513;-68
2022/04/26 06:30:41;;;;;;;4.20;3.80;;;10.70;99.90;;;;;;5083851;28;20527;-68
2022/04/26 06:33:12;;;;;;;6.00;3.70;;;10.70;99.90;;;;;;5083650;28;20455;-68
2022/04/26 06:35:48;;;;;;;5.07;4.30;;;10.70;99.90;;;;;;5085371;28;20439;-68
2022/04/26 06:38:22;;;;;;;5.60;4.03;;;10.70;99.90;;;;;;5071434;28;20589;-68
2022/04/26 06:40:54;;;;;;;5.10;3.70;;;10.50;99.90;;;;;;5084071;28;20456;-68
2022/04/26 06:43:25;;;;;;;5.90;4.10;;;10.40;99.90;;;;;;5082464;28;20459;-68
2022/04/26 06:45:56;;;;;;;5.60;4.30;;;10.30;99.90;;;;;;5084042;28;20526;-68
2022/04/26 06:48:27;;;;;;;4.70;4.17;;;10.20;99.90;;;;;;5076255;28;20463;-68
2022/04/26 06:50:58;;;;;;;4.80;4.30;;;10.20;99.90;;;;;;5082363;28;20581;-68
2022/04/26 06:53:28;;;;;;;6.70;4.10;;;10.10;99.90;;;;;;5082888;28;20586;-68
2022/04/26 06:56:01;;;;;;;6.83;4.43;;;10.00;99.90;;;;;;5083284;28;20471;-68
2022/04/26 06:58:33;;;;;;;4.63;4.17;;;10.00;99.90;;;;;;5077014;28;20554;-68
2022/04/26 07:01:04;;;;;;;3.73;3.33;;;9.90;99.90;;;;;;5082577;28;20452;-68
2022/04/26 07:03:55;;;;;;;4.93;4.23;;;9.90;99.90;;;;;;5082495;28;20542;-68
2022/04/26 07:06:26;;;;;;;7.00;4.43;;;9.80;99.90;;;;;;5082547;28;20460;-68
2022/04/26 07:08:57;;;;;;;5.63;3.73;;;9.80;99.90;;;;;;5080376;28;20955;-68
2022/04/26 07:11:30;;;;;;;6.30;4.20;;;9.80;99.90;;;;;;5083064;28;20467;-68
2022/04/26 07:14:00;;;;;;;5.00;4.20;;;9.80;99.90;;;;;;5081585;28;20475;-68
2022/04/26 07:16:31;;;;;;;6.80;4.33;;;9.80;99.90;;;;;;5083788;28;20455;-68
2022/04/26 07:19:02;;;;;;;5.63;4.20;;;9.80;99.90;;;;;;5083237;28;20463;-68
2022/04/26 07:21:35;;;;;;;6.10;3.70;;;9.70;99.90;;;;;;5082614;28;21391;-68
2022/04/26 07:24:26;;;;;;;4.73;3.53;;;9.70;99.90;;;;;;5074772;28;20502;-68
2022/04/26 07:26:59;;;;;;;4.27;3.73;;;9.80;99.90;;;;;;5080529;28;21121;-67
2022/04/26 07:29:30;;;;;;;5.23;4.30;;;9.80;99.90;;;;;;5078049;28;20497;-67
2022/04/26 07:32:01;;;;;;;4.80;4.10;;;9.90;99.90;;;;;;5080160;28;20535;-68
2022/04/26 07:34:30;;;;;;;6.90;4.27;;;9.90;99.90;;;;;;5081915;28;20455;-68
2022/04/26 07:37:02;;;;;;;6.20;4.17;;;9.80;99.90;;;;;;5081490;28;20459;-68
2022/04/26 07:39:34;;;;;;;7.50;4.03;;;9.80;99.90;;;;;;5078793;28;20551;-68
2022/04/26 07:42:08;;;;;;;8.43;4.70;;;9.70;99.90;;;;;;5081460;28;20464;-68
2022/04/26 07:44:40;;;;;;;5.80;3.90;;;9.70;99.90;;;;;;5082129;28;20585;-68
2022/04/26 07:47:11;;;;;;;4.73;4.00;;;9.70;99.90;;;;;;5082120;28;20574;-67
2022/04/26 07:49:43;;;;;;;4.70;3.30;;;9.60;99.90;;;;;;5081018;28;20463;-68
2022/04/26 07:52:15;;;;;;;6.90;3.57;;;9.60;99.90;;;;;;5083092;28;20545;-68
2022/04/26 07:54:46;;;;;;;4.17;3.60;;;9.60;99.90;;;;;;5081310;28;20561;-68
2022/04/26 07:57:19;;;;;;;4.13;3.57;;;9.60;99.90;;;;;;5078554;28;20510;-68
2022/04/26 07:59:50;;;;;;;5.27;3.53;;;9.60;99.90;;;;;;5081765;28;20535;-68
2022/04/26 08:02:22;;;;;;;5.53;3.60;;;9.60;99.90;;;;;;5082310;28;20499;-68
2022/04/26 08:04:54;;;;;;;5.83;3.90;;;9.60;99.90;;;;;;5080870;28;20566;-68
2022/04/26 08:07:25;;;;;;;6.30;3.90;;;9.50;99.90;;;;;;5081893;28;20523;-68
2022/04/26 08:09:55;;;;;;;5.40;4.40;;;9.50;99.90;;;;;;5080756;28;20567;-68
2022/04/26 08:12:28;;;;;;;5.80;4.83;;;9.60;99.90;;;;;;5080974;28;20550;-68
2022/04/26 08:14:59;;;;;;;5.90;4.00;;;9.60;99.90;;;;;;5079981;28;20502;-68
2022/04/26 08:17:29;;;;;;;7.57;3.90;;;9.60;99.90;;;;;;5081671;28;20463;-68
2022/04/26 08:20:00;;;;;;;7.73;4.23;;;9.70;99.90;;;;;;5080112;28;20559;-68
2022/04/26 08:22:32;;;;;;;9.20;3.80;;;9.60;99.90;;;;;;5082369;28;20464;-68
2022/04/26 08:27:52;;;;;;;8.00;4.40;;;9.60;99.90;;;;;;5078826;28;20486;-68
2022/04/26 08:30:23;;;;;;;4.93;4.20;;;9.60;99.90;;;;;;5080859;28;20519;-68
2022/04/26 08:32:54;;;;;;;6.13;4.30;;;9.60;99.90;;;;;;5079856;28;20943;-68
2022/04/26 08:35:27;;;;;;;5.37;3.80;;;9.60;99.90;;;;;;5079550;28;20625;-68
2022/04/26 08:38:18;;;;;;;3.53;3.03;;;9.60;99.90;;;;;;5079173;28;20456;-68
2022/04/26 08:40:49;;;;;;;4.20;3.60;;;9.60;99.90;;;;;;5076454;28;20550;-68
2022/04/26 08:43:22;;;;;;;4.50;3.00;;;9.60;99.90;;;;;;5074919;28;20477;-68
2022/04/26 08:45:54;;;;;;;6.50;4.10;;;9.50;99.90;;;;;;5079938;28;20594;-69
2022/04/26 08:51:14;;;;;;;4.30;3.30;;;9.50;99.90;;;;;;5080104;28;20474;-68
2022/04/26 08:53:46;;;;;;;6.63;3.43;;;9.60;99.90;;;;;;5080610;28;20455;-69
2022/04/26 08:56:17;;;;;;;8.10;3.57;;;9.50;99.90;;;;;;5082164;28;20455;-69
2022/04/26 08:58:50;;;;;;;6.30;3.67;;;9.50;99.90;;;;;;5079104;28;20526;-68
2022/04/26 09:01:25;;;;;;;4.73;3.00;;;9.50;99.90;;;;;;5079507;28;20464;-68
2022/04/26 09:03:59;;;;;;;6.20;3.20;;;9.40;99.90;;;;;;5080419;28;20517;-68
2022/04/26 09:06:40;;;;;;;6.70;3.27;;;9.50;99.90;;;;;;5080685;28;20483;-68
2022/04/26 09:09:16;;;;;;;4.70;2.80;;;9.30;99.90;;;;;;5079904;28;20487;-68
2022/04/26 09:11:47;;;;;;;3.37;2.77;;;9.30;99.90;;;;;;5080529;28;20509;-68
2022/04/26 09:14:34;;;;;;;5.80;2.93;;;9.40;99.90;;;;;;5080794;28;20483;-68
2022/04/26 09:17:07;;;;;;;5.90;3.00;;;9.40;99.90;;;;;;5080705;28;20550;-67
2022/04/26 09:19:48;;;;;;;3.20;2.93;;;9.30;99.90;;;;;;5081602;28;20451;-67
2022/04/26 09:22:27;;;;;;;6.10;2.63;;;9.40;99.90;;;;;;5079275;28;20583;-67
2022/04/26 09:25:03;;;;;;;4.50;2.50;;;9.40;99.90;;;;;;5079146;28;20469;-66
2022/04/26 09:27:37;;;;;;;6.37;2.73;;;9.30;99.90;;;;;;5079744;28;20494;-67
2022/04/26 09:30:16;;;;;;;2.70;2.27;;;9.30;99.90;;;;;;5079807;28;20486;-67
2022/04/26 09:32:50;;;;;;;7.50;3.20;;;9.30;99.90;;;;;;5081514;28;20479;-67
2022/04/26 09:35:22;;;;;;;5.82;3.30;;;9.30;99.90;;;;;;5079296;28;20467;-67
2022/04/26 09:37:53;;;;;;;4.57;3.30;;;9.30;99.90;;;;;;5080200;28;20206;-67
2022/04/26 09:40:31;;;;;;;7.37;3.33;;;9.30;99.90;;;;;;5070027;28;20582;-67
2022/04/26 09:43:02;;;;;;;7.00;3.30;;;9.30;99.90;;;;;;5080007;28;20534;-67
2022/04/26 09:45:34;;;;;;;4.77;3.67;;;9.30;99.90;;;;;;5081577;28;20483;-67
2022/04/26 09:48:06;;;;;;;6.70;3.43;;;9.30;99.90;;;;;;5081281;28;20459;-67
2022/04/26 09:50:37;;;;;;;4.53;3.90;;;9.30;99.90;;;;;;5079666;28;20468;-67
2022/04/26 09:53:08;;;;;;;8.30;3.90;;;9.20;99.90;;;;;;5084156;28;20469;-67
2022/04/26 09:55:40;;;;;;;9.48;4.70;;;9.20;99.90;;;;;;5076388;28;20471;-66
2022/04/26 09:58:12;;;;;;;5.28;3.33;;;9.20;99.90;;;;;;5083365;28;20224;-66
2022/04/26 10:00:47;;;;;;;4.07;3.67;;;9.20;99.90;;;;;;5085665;28;20193;-66
2022/04/26 10:03:22;;;;;;;5.00;3.67;;;9.10;99.90;;;;;;5085033;28;20789;-66
2022/04/26 10:06:00;;;;;;;6.63;3.60;;;8.90;99.90;;;;;;5084955;28;20551;-66
2022/04/26 10:08:32;;;;;;;4.72;3.90;;;9.00;99.90;;;;;;5074464;28;20467;-67
2022/04/26 10:11:04;;;;;;;4.55;4.07;;;9.10;99.90;;;;;;5083755;28;20201;-67
2022/04/26 10:13:39;;;;;;;7.50;4.40;;;9.10;99.90;;;;;;5082859;28;20727;-66
2022/04/26 10:16:15;;;;;;;6.17;4.33;;;9.00;99.90;;;;;;5085003;28;20458;-67
2022/04/26 10:18:48;;;;;;;7.72;3.90;;;9.00;99.90;;;;;;5085071;28;20485;-66
2022/04/26 10:21:49;;;;;;;6.75;3.83;;;8.90;99.90;;;;;;5083503;28;20199;-67
2022/04/26 10:24:22;;;;;;;5.88;4.00;;;8.90;99.90;;;;;;5083317;28;20220;-67
2022/04/26 10:26:54;;;;;;;8.77;3.40;;;9.00;99.90;;;;;;5083376;28;20229;-67
2022/04/26 10:29:26;;;;;;;11.65;4.10;;;8.90;99.90;;;;;;5074764;28;20490;-67
2022/04/26 10:32:03;;;;;;;7.30;4.22;;;8.90;99.90;;;;;;5082779;28;20213;-67
2022/04/26 10:34:35;;;;;;;3.80;3.40;;;8.80;99.90;;;;;;5083077;28;20216;-66
2022/04/26 10:37:33;;;;;;;4.35;3.33;;;8.80;99.90;;;;;;5083510;28;20288;-67
2022/04/26 10:40:05;;;;;;;7.50;4.17;;;8.80;99.90;;;;;;5069586;28;20226;-67
2022/04/26 10:42:36;;;;;;;5.35;3.67;;;8.80;99.90;;;;;;5085316;28;20578;-67
2022/04/26 10:45:12;;;;;;;8.53;3.80;;;8.80;99.90;;;;;;5084155;28;20206;-67
2022/04/26 10:47:45;;;;;;;6.15;4.15;;;8.70;99.90;;;;;;5074794;28;20554;-67
2022/04/26 10:50:33;;;;;;;5.00;3.13;;;8.50;99.90;;;;;;5081639;28;20216;-67
2022/04/26 10:53:05;;;;;;;4.97;3.33;;;8.50;99.90;;;;;;5081534;28;20201;-67
2022/04/26 10:55:36;;;;;;;7.07;3.83;;;8.50;99.90;;;;;;5082684;28;20200;-67
2022/04/26 10:58:07;;;;;;;6.80;3.80;;;8.50;99.90;;;;;;5082476;28;20264;-67
2022/04/26 11:00:40;;;;;;;3.97;3.45;;;8.50;99.90;;;;;;5082653;28;20276;-67
2022/04/26 11:03:13;;;;;;;4.47;3.63;;;8.40;99.90;;;;;;5083687;28;20315;-67
2022/04/26 11:05:44;;;;;;;8.63;4.43;;;8.40;99.90;;;;;;5077393;28;20205;-67
2022/04/26 11:08:16;;;;;;;6.15;3.85;;;8.40;99.90;;;;;;5080472;28;20223;-67
2022/04/26 11:11:07;;;;;;;5.85;3.70;;;8.40;99.90;;;;;;5084254;28;20233;-67
2022/04/26 11:13:38;;;;;;;5.20;3.95;;;8.40;99.90;;;;;;5082775;28;20233;-67
2022/04/26 11:16:12;;;;;;;4.28;3.15;;;8.40;99.90;;;;;;5082943;28;20272;-67
2022/04/26 11:18:46;;;;;;;4.97;3.45;;;8.40;99.90;;;;;;5082576;28;20625;-67
2022/04/26 11:21:17;;;;;;;7.20;3.85;;;8.40;99.90;;;;;;5084395;28;20209;-67
2022/04/26 11:29:51;;;;;;;7.18;3.45;;;8.40;99.90;;;;;;5048143;28;20214;-67
2022/04/26 11:32:34;;;;;;;8.20;3.95;;;8.40;99.90;;;;;;5061268;28;20228;-67
2022/04/26 11:35:08;;;;;;;5.53;3.20;;;8.50;99.90;;;;;;5061241;28;20204;-67
2022/04/26 11:37:45;;;;;;;5.05;3.00;;;8.50;99.90;;;;;;5059450;28;20198;-66
2022/04/26 11:40:25;;;;;;;6.47;4.43;;;8.60;99.90;;;;;;5060403;28;20209;-67
2022/04/26 11:42:57;;;;;;;3.92;3.08;;;8.60;99.90;;;;;;5061243;28;20737;-67
2022/04/26 11:45:29;;;;;;;8.00;4.50;;;8.60;99.90;;;;;;5058177;28;20217;-67
2022/04/26 11:48:00;;;;;;;4.22;3.10;;;8.70;99.90;;;;;;5057140;28;20233;-67
2022/04/26 11:50:33;;;;;;;5.30;3.58;;;8.60;99.90;;;;;;5059037;28;20367;-66
2022/04/26 11:53:06;;;;;;;5.63;3.63;;;8.60;99.90;;;;;;5059269;28;20201;-67
2022/04/26 11:55:37;;;;;;;9.20;3.88;;;8.60;99.90;;;;;;5060151;28;20277;-67
2022/04/26 11:58:19;;;;;;;4.10;3.70;;;8.60;99.90;;;;;;5059221;28;20210;-67
2022/04/26 12:00:59;;;;;;;5.25;4.35;;;8.70;99.90;;;;;;5059776;28;20213;-67
2022/04/26 12:03:32;;;;;;;5.53;3.30;;;8.70;99.90;;;;;;5060154;28;20201;-67
2022/04/26 12:06:06;;;;;;;6.28;4.10;;;8.80;99.90;;;;;;5074322;28;20284;-67
2022/04/26 12:08:38;;;;;;;4.50;3.63;;;8.80;99.90;;;;;;5082539;28;20221;-67
2022/04/26 12:11:20;;;;;;;5.82;3.47;;;8.80;99.90;;;;;;5083141;28;20229;-67
2022/04/26 12:14:02;;;;;;;3.95;3.50;;;8.90;99.90;;;;;;5083068;28;20323;-67
2022/04/26 12:16:33;;;;;;;5.65;3.17;;;8.90;99.90;;;;;;5082350;28;20378;-67
2022/04/26 12:19:05;;;;;;;4.55;3.85;;;8.80;99.90;;;;;;5083458;28;20205;-67
2022/04/26 12:21:48;;;;;;;5.55;3.47;;;8.80;99.90;;;;;;5083155;28;20679;-67
2022/04/26 12:24:21;;;;;;;5.10;3.70;;;8.70;99.90;;;;;;5082512;28;20550;-67
2022/04/26 12:26:56;;;;;;;4.88;3.00;;;8.70;99.90;;;;;;5083231;28;20463;-67
2022/04/26 12:29:29;;;;;;;10.32;3.35;;;8.70;99.90;;;;;;5084026;28;20215;-67
2022/04/26 12:32:01;;;;;;;3.78;3.35;;;8.70;99.90;;;;;;5073239;28;20220;-67
2022/04/26 12:34:31;;;;;;;4.85;3.40;;;8.70;99.90;;;;;;5082711;28;20205;-67
2022/04/26 12:37:07;;;;;;;4.53;3.17;;;8.70;99.90;;;;;;5083207;28;20296;-67
2022/04/26 12:39:48;;;;;;;4.45;3.88;;;8.60;99.90;;;;;;5082538;28;20197;-67
2022/04/26 12:42:36;;;;;;;6.07;3.90;;;8.60;99.90;;;;;;5081419;28;20209;-67
2022/04/26 12:45:16;;;;;;;8.57;4.70;;;8.70;99.90;;;;;;5080137;28;20512;-67
2022/04/26 12:50:54;;;;;;;4.07;3.20;;;8.70;99.90;;;;;;5081218;28;20197;-68
2022/04/26 12:53:31;;;;;;;5.85;3.50;;;8.60;99.90;;;;;;5079009;28;20209;-67
2022/04/26 12:56:09;;;;;;;4.13;3.10;;;8.50;99.90;;;;;;5081868;28;20215;-66
2022/04/26 12:58:41;;;;;;;3.33;2.92;;;8.60;99.90;;;;;;5077940;28;20514;-67
2022/04/26 13:01:12;;;;;;;4.07;3.40;;;8.50;99.90;;;;;;5080803;28;20523;-67
2022/04/26 13:03:46;;;;;;;5.20;2.97;;;8.40;99.90;;;;;;5081306;28;20259;-67
2022/04/26 13:06:19;;;;;;;5.55;3.85;;;8.40;99.90;;;;;;5079583;28;20197;-66
2022/04/26 13:09:11;;;;;;;7.45;3.55;;;8.50;99.90;;;;;;5081694;28;20263;-67
2022/04/26 13:11:43;;;;;;;4.32;3.58;;;8.50;99.90;;;;;;5077549;28;20217;-67
2022/04/26 13:14:14;;;;;;;5.23;3.80;;;8.40;99.90;;;;;;5078630;28;20260;-67
2022/04/26 13:17:06;;;;;;;5.90;3.17;;;8.50;99.90;;;;;;5081042;28;20455;-67
2022/04/26 13:19:37;;;;;;;6.13;3.30;;;8.40;99.90;;;;;;5078066;28;20216;-67
2022/04/26 13:22:08;;;;;;;5.97;3.70;;;8.40;99.90;;;;;;5079265;28;20208;-67
2022/04/26 13:24:41;;;;;;;7.40;3.70;;;8.40;99.90;;;;;;5079714;28;20471;-68
2022/04/26 13:27:13;;;;;;;5.18;3.22;;;8.40;99.90;;;;;;5080773;28;20212;-67
2022/04/26 13:29:44;;;;;;;5.63;3.42;;;8.40;99.90;;;;;;5075067;28;20231;-67
2022/04/26 13:32:15;;;;;;;4.40;4.00;;;8.40;99.90;;;;;;5081272;28;20219;-67
2022/04/26 13:34:46;;;;;;;8.38;4.55;;;8.40;99.90;;;;;;5079602;28;20213;-67
2022/04/26 13:37:18;;;;;;;6.40;4.05;;;8.40;99.90;;;;;;5081780;28;20201;-67
2022/04/26 13:39:51;;;;;;;7.65;4.50;;;8.50;99.90;;;;;;5078654;28;20200;-67
2022/04/26 13:42:23;;;;;;;7.38;4.18;;;8.50;99.90;;;;;;5081859;28;20205;-67
2022/04/26 13:44:54;;;;;;;4.80;4.15;;;8.50;99.90;;;;;;5080880;28;20219;-67
2022/04/26 13:47:25;;;;;;;5.55;3.20;;;8.60;99.90;;;;;;5081635;28;20284;-67
2022/04/26 13:49:56;;;;;;;3.97;3.65;;;8.70;99.90;;;;;;5080525;28;20205;-67
2022/04/26 13:52:27;;;;;;;7.32;4.10;;;8.80;99.90;;;;;;5079212;28;20208;-67
2022/04/26 13:54:59;;;;;;;5.63;3.33;;;8.90;99.90;;;;;;5081227;28;20200;-67
2022/04/26 13:57:30;;;;;;;7.30;3.90;;;9.00;99.90;;;;;;5080106;28;20742;-67
2022/04/26 14:00:01;;;;;;;7.22;4.38;;;9.10;99.90;;;;;;5078704;28;20529;-67
2022/04/26 14:02:31;;;;;;;5.03;3.75;;;9.20;99.90;;;;;;5077602;28;20205;-67
2022/04/26 14:05:04;;;;;;;6.33;3.73;;;9.30;99.90;;;;;;5079589;28;20522;-67
2022/04/26 14:07:34;;;;;;;8.25;4.22;;;9.40;99.90;;;;;;5081478;28;20474;-68
2022/04/26 14:10:08;;;;;;;4.23;2.90;;;9.30;99.90;;;;;;5076075;28;20272;-67
2022/04/26 14:12:39;;;;;;;10.98;4.05;;;9.30;99.90;;;;;;5076304;28;20461;-66
2022/04/26 14:24:03;;;;;;;7.37;3.53;;;9.30;99.90;;;;;;4940982;29;20458;-66
2022/04/26 14:26:37;;;;;;;6.10;3.50;;;9.40;99.90;;;;;;4942085;29;20841;-67
2022/04/26 14:29:08;;;;;;;6.45;4.10;;;9.40;99.90;;;;;;4942065;29;20524;-66
2022/04/26 14:31:46;;;;;;;6.83;3.70;;;9.40;99.90;;;;;;4940980;29;20194;-67
2022/04/26 14:34:17;;;;;;;6.83;3.30;;;9.40;99.90;;;;;;4941443;29;20981;-67
2022/04/26 14:36:48;;;;;;;5.80;3.70;;;9.50;99.90;;;;;;4938885;29;21014;-66
2022/04/26 14:39:26;;;;;;;5.23;3.90;;;9.40;99.90;;;;;;4943190;29;20473;-66
2022/04/26 14:41:58;;;;;;;6.63;3.60;;;9.50;99.90;;;;;;4942528;29;20466;-66
2022/04/26 14:44:29;;;;;;;4.30;2.80;;;9.50;99.90;;;;;;4942161;29;20562;-66
2022/04/26 14:47:01;;;;;;;5.60;3.50;;;9.60;99.90;;;;;;4943364;29;20202;-66
2022/04/26 14:49:32;;;;;;;6.37;3.57;;;9.60;99.90;;;;;;4981399;28;20521;-69
2022/04/26 14:52:04;;;;;;;6.20;3.80;;;9.60;99.90;;;;;;5031161;28;20527;-67
2022/04/26 14:54:55;;;;;;;3.87;2.97;;;9.50;99.90;;;;;;5079714;28;20625;-66
2022/04/26 14:57:28;;;;;;;10.03;3.87;;;9.50;99.90;;;;;;5083134;28;20574;-67
2022/04/26 14:59:59;;;;;;;7.07;3.90;;;9.50;99.90;;;;;;5083533;28;20471;-67
2022/04/26 15:02:36;;;;;;;5.00;3.60;;;9.50;99.90;;;;;;5082959;28;20660;-68
2022/04/26 15:05:13;;;;;;;9.27;3.23;;;9.70;99.90;;;;;;5080451;28;20467;-69
2022/04/26 15:10:31;;;;;;;3.73;2.70;;;9.70;99.90;;;;;;5083024;28;20497;-69
2022/04/26 15:18:39;;;;;;;3.30;2.50;;;9.80;99.90;;;;;;5082790;28;20443;-67
2022/04/26 15:21:11;;;;;;;5.53;2.60;;;9.70;99.90;;;;;;5083548;28;20535;-67
2022/04/26 15:23:41;;;;;;;6.83;2.87;;;9.70;99.90;;;;;;5077424;28;20764;-68
2022/04/26 15:26:12;;;;;;;4.90;2.50;;;9.80;99.90;;;;;;5082868;28;20459;-69
2022/04/26 15:28:45;;;;;;;4.17;2.23;;;9.90;99.90;;;;;;5083785;28;20479;-69
2022/04/26 15:31:18;;;;;;;5.17;1.97;;;10.00;99.90;;;;;;5084041;28;20473;-66
2022/04/26 15:33:50;;;;;;;2.83;2.20;;;10.10;99.90;;;;;;5081829;28;20587;-70
2022/04/26 15:36:21;;;;;;;4.27;2.07;;;10.40;99.90;;;;;;5083403;28;20966;-73
2022/04/26 15:38:54;;;;;;;7.53;2.20;;;10.80;99.90;;;;;;5082219;28;21135;-72
2022/04/26 15:41:28;;;;;;;6.00;2.73;;;11.20;99.90;;;;;;5079715;28;20546;-71
2022/04/26 15:44:01;;;;;;;4.90;3.33;;;11.20;99.90;;;;;;5083259;28;20799;-67
2022/04/26 15:46:42;;;;;;;2.63;2.10;;;11.30;99.90;;;;;;5083616;28;20459;-67
2022/04/26 15:49:13;;;;;;;3.50;2.30;;;11.50;99.90;;;;;;5082113;28;20475;-67
2022/04/26 15:51:44;;;;;;;4.50;1.97;;;11.70;99.90;;;;;;5081601;28;20565;-63
2022/04/26 15:54:15;;;;;;;5.70;2.23;;;12.10;99.90;;;;;;5080001;28;20787;-63
2022/04/26 15:56:46;;;;;;;2.77;2.07;;;12.40;99.90;;;;;;5075638;28;20573;-64
2022/04/26 15:59:19;;;;;;;3.80;2.17;;;12.50;99.90;;;;;;5082929;28;20467;-64
2022/04/26 16:01:50;;;;;;;3.30;2.07;;;12.50;99.90;;;;;;5082490;28;20525;-64
2022/04/26 16:04:21;;;;;;;2.90;1.50;;;12.30;99.90;;;;;;5081848;28;20471;-66
2022/04/26 16:06:52;;;;;;;2.90;2.00;;;12.10;99.90;;;;;;5081930;28;20459;-65
2022/04/26 16:20:35;;;;;;;2.10;1.50;;;16.20;99.90;;;;;;5082191;28;20447;-65
2022/04/26 16:23:07;;;;;;;1.70;1.40;;;18.20;98.10;;;;;;5081643;28;20467;-65
2022/04/26 16:25:38;;;;;;;3.00;1.30;;;20.40;91.70;;;;;;5081306;28;20532;-65
2022/04/26 16:28:10;;;;;;;1.90;1.33;;;21.10;87.00;;;;;;5079439;28;20467;-65
2022/04/26 16:30:42;;;;;;;4.90;1.50;;;22.20;79.60;;;;;;5079552;28;20537;-65
2022/04/26 16:33:14;;;;;;;1.87;1.07;;;22.80;75.70;;;;;;5082794;28;20444;-64
2022/04/26 16:35:45;;;;;;;3.50;1.23;;;22.90;71.70;;;;;;5081020;28;20464;-66
2022/04/26 16:38:17;;;;;;;1.37;1.27;;;23.30;72.90;;;;;;5081013;28;20475;-66
2022/04/26 16:40:48;;;;;;;2.10;1.37;;;23.60;71.40;;;;;;5081705;28;20477;-65
2022/04/26 16:43:19;;;;;;;1.80;1.50;;;24.20;67.30;;;;;;5066346;28;20465;-65
2022/04/26 16:45:52;;;;;;;2.73;1.40;;;23.80;64.20;;;;;;5080540;28;20461;-65
2022/04/26 16:48:27;;;;;;;4.30;1.60;;;22.40;66.70;;;;;;5081570;28;20476;-65
2022/04/26 16:50:59;;;;;;;2.60;1.53;;;21.10;70.40;;;;;;5081967;28;20523;-65
2022/04/26 16:53:30;;;;;;;2.43;1.80;;;20.00;73.60;;;;;;5075626;28;20463;-65
2022/04/26 16:56:03;;;;;;;2.90;1.60;;;19.80;73.40;;;;;;5080614;28;20467;-65
2022/04/26 16:58:34;;;;;;;2.83;1.43;;;19.10;75.30;;;;;;5077214;28;20460;-69
2022/04/26 17:01:07;;;;;;;3.13;1.43;;;18.20;77.70;;;;;;5080787;28;20490;-67
2022/04/26 17:03:39;;;;;;;3.80;1.10;;;17.70;79.60;;;;;;5082607;28;20455;-67
2022/04/26 17:06:11;;;;;;;2.30;1.40;;;17.00;83.80;;;;;;5075838;28;20434;-67
2022/04/26 17:08:42;;;;;;;1.77;1.40;;;16.60;91.20;;;;;;5079400;28;20758;-67
2022/04/26 17:13:59;;;;;;;2.33;1.50;;;15.70;91.40;;;;;;5079972;28;20461;-66
2022/04/26 17:16:32;;;;;;;2.97;1.50;;;15.30;93.10;;;;;;5082331;28;20453;-68
2022/04/26 17:19:03;;;;;;;3.80;1.70;;;14.70;93.90;;;;;;5083208;28;20448;-66
2022/04/26 17:21:34;;;;;;;2.10;1.80;;;14.60;94.80;;;;;;5080950;28;20464;-65
2022/04/26 17:25:13;;;;;;;4.63;1.47;;;14.50;94.20;;;;;;5081300;28;20447;-66
2022/04/26 17:26:58;;;;;;;1.50;1.30;;;14.10;94.50;;;;;;5080914;28;20529;-66
2022/04/26 17:29:29;;;;;;;2.07;1.30;;;13.70;97.10;;;;;;5082336;28;20483;-66
2022/04/26 17:32:01;;;;;;;3.30;1.20;;;14.90;96.20;;;;;;5082192;28;20471;-66
2022/04/26 17:34:35;;;;;;;2.50;1.70;;;16.00;94.20;;;;;;5080931;28;20462;-66
2022/04/26 17:37:06;;;;;;;2.70;1.70;;;16.00;93.20;;;;;;5075128;28;20508;-66
2022/04/26 17:39:39;;;;;;;2.80;1.70;;;15.90;94.40;;;;;;5078806;28;20455;-65
2022/04/26 17:42:11;;;;;;;2.23;1.70;;;16.30;93.20;;;;;;5081941;28;20462;-65
2022/04/26 17:44:42;;;;;;;1.93;1.50;;;17.10;90.60;;;;;;5079266;28;20447;-65
2022/04/26 17:47:15;;;;;;;2.23;1.50;;;16.70;90.90;;;;;;5081479;28;20474;-65
2022/04/26 17:49:58;;;;;;;3.53;1.73;;;16.40;90.60;;;;;;5074689;28;20487;-66